createdAt,value
2023-08-17T00:02:06.058Z,6.15
2023-08-17T00:05:15.063Z,6.50
2023-08-17T00:08:16.871Z,5.90
2023-08-17T00:11:21.480Z,6.03
2023-08-17T00:14:23.393Z,6.05
2023-08-17T00:17:25.419Z,6.63
2023-08-17T00:20:29.804Z,6.60
2023-08-17T00:23:44.254Z,8.13
2023-08-17T00:26:45.987Z,7.53
2023-08-17T00:29:52.058Z,7.28
2023-08-17T00:32:53.788Z,7.10
2023-08-17T00:35:56.867Z,9.63
2023-08-17T00:38:58.786Z,10.25
2023-08-17T00:42:00.515Z,7.10
2023-08-17T00:45:08.153Z,6.40
2023-08-17T00:48:12.437Z,7.13
2023-08-17T00:51:18.641Z,6.97
2023-08-17T00:54:25.595Z,6.30
2023-08-17T00:57:29.411Z,6.55
2023-08-17T01:00:36.358Z,7.32
2023-08-17T01:03:40.725Z,6.38
2023-08-17T01:06:46.953Z,6.60
2023-08-17T01:09:51.689Z,9.15
2023-08-17T01:13:08.919Z,13.68
2023-08-17T01:16:17.052Z,9.65
2023-08-17T01:19:26.880Z,8.25
2023-08-17T01:22:36.466Z,8.10
2023-08-17T01:25:41.353Z,7.35
2023-08-17T01:28:45.986Z,7.13
2023-08-17T01:32:00.554Z,6.90
2023-08-17T01:35:10.513Z,7.07
2023-08-17T01:38:21.641Z,7.28
2023-08-17T01:41:26.723Z,6.32
2023-08-17T01:44:36.563Z,6.22
2023-08-17T01:47:43.939Z,5.95
2023-08-17T01:50:45.668Z,6.80
2023-08-17T01:53:49.577Z,7.10
2023-08-17T01:56:53.871Z,7.85
2023-08-17T02:00:00.448Z,7.30
2023-08-17T02:03:02.252Z,7.18
2023-08-17T02:06:06.673Z,7.28
2023-08-17T02:09:11.162Z,6.60
2023-08-17T02:12:14.260Z,7.10
2023-08-17T02:18:34.232Z,7.13
2023-08-17T02:21:37.565Z,6.50
2023-08-17T02:24:39.275Z,6.85
2023-08-17T02:27:48.320Z,7.68
2023-08-17T02:30:51.246Z,6.93
2023-08-17T02:33:57.245Z,7.38
2023-08-17T02:37:05.726Z,6.40
2023-08-17T02:40:08.562Z,6.27
2023-08-17T02:43:13.984Z,7.13
2023-08-17T02:46:15.861Z,6.80
2023-08-17T02:49:20.374Z,6.40
2023-08-17T02:52:23.381Z,7.10
2023-08-17T02:55:26.747Z,6.85
2023-08-17T02:58:32.835Z,6.43
2023-08-17T03:01:34.700Z,6.70
2023-08-17T03:04:37.685Z,7.15
2023-08-17T03:07:41.892Z,7.20
2023-08-17T03:10:49.357Z,7.25
2023-08-17T03:13:54.403Z,7.10
2023-08-17T03:16:56.191Z,6.85
2023-08-17T03:19:59.591Z,6.82
2023-08-17T03:23:01.391Z,7.15
2023-08-17T03:26:09.979Z,7.30
2023-08-17T03:29:14.300Z,7.63
2023-08-17T03:32:17.731Z,7.55
2023-08-17T03:35:19.639Z,6.65
2023-08-17T03:38:21.683Z,6.78
2023-08-17T03:41:23.505Z,7.07
2023-08-17T03:44:30.464Z,7.00
2023-08-17T03:47:33.906Z,8.32
2023-08-17T03:50:35.647Z,7.60
2023-08-17T03:53:37.363Z,8.68
2023-08-17T03:56:40.681Z,7.38
2023-08-17T03:59:53.800Z,8.27
2023-08-17T04:02:55.540Z,8.07
2023-08-17T04:05:57.262Z,9.23
2023-08-17T04:09:01.922Z,8.00
2023-08-17T04:12:04.046Z,8.43
2023-08-17T04:15:07.824Z,7.47
2023-08-17T04:18:09.605Z,7.55
2023-08-17T04:21:11.397Z,7.78
2023-08-17T04:24:13.116Z,8.35
2023-08-17T04:27:18.727Z,8.25
2023-08-17T04:30:22.039Z,8.57
2023-08-17T04:33:23.730Z,8.05
2023-08-17T04:36:25.459Z,8.30
2023-08-17T04:39:27.164Z,8.52
2023-08-17T04:42:30.864Z,8.65
2023-08-17T04:45:37.695Z,8.60
2023-08-17T04:48:41.102Z,8.57
2023-08-17T04:51:46.532Z,7.75
2023-08-17T04:54:49.540Z,7.50
2023-08-17T04:57:52.973Z,7.70
2023-08-17T05:00:56.117Z,7.65
2023-08-17T05:04:00.473Z,7.57
2023-08-17T05:07:06.979Z,9.35
2023-08-17T05:10:09.287Z,8.75
2023-08-17T05:13:13.210Z,8.02
2023-08-17T05:16:17.545Z,8.52
2023-08-17T05:19:23.304Z,8.45
2023-08-17T05:22:26.869Z,8.88
2023-08-17T05:25:28.616Z,8.18
2023-08-17T05:28:32.927Z,9.90
2023-08-17T05:31:38.074Z,10.40
2023-08-17T05:34:48.409Z,9.32
2023-08-17T05:37:51.344Z,9.05
2023-08-17T05:40:58.322Z,9.50
2023-08-17T05:44:01.251Z,9.93
2023-08-17T05:47:04.721Z,10.80
2023-08-17T05:50:07.545Z,9.25
2023-08-17T05:53:13.341Z,10.52
2023-08-17T05:56:15.058Z,10.75
2023-08-17T05:59:23.722Z,9.43
2023-08-17T06:02:31.167Z,10.05
2023-08-17T06:05:32.853Z,10.77
2023-08-17T06:08:37.356Z,9.55
2023-08-17T06:11:39.114Z,10.20
2023-08-17T06:14:43.204Z,10.50
2023-08-17T06:17:47.958Z,11.00
2023-08-17T06:20:49.805Z,10.13
2023-08-17T06:23:51.602Z,10.13
2023-08-17T06:26:56.168Z,11.57
2023-08-17T06:29:59.509Z,10.55
2023-08-17T06:33:04.030Z,11.15
2023-08-17T06:36:10.404Z,11.40
2023-08-17T06:39:12.112Z,12.55
2023-08-17T06:42:18.078Z,9.77
2023-08-17T06:45:25.989Z,9.07
2023-08-17T06:48:32.323Z,9.88
2023-08-17T06:51:34.064Z,9.80
2023-08-17T06:54:37.475Z,9.65
2023-08-17T06:57:41.590Z,9.52
2023-08-17T07:00:55.010Z,9.00
2023-08-17T07:03:58.091Z,9.20
2023-08-17T07:06:59.943Z,9.80
2023-08-17T07:10:03.525Z,8.73
2023-08-17T07:13:07.854Z,9.05
2023-08-17T07:16:09.638Z,9.15
2023-08-17T07:19:14.028Z,9.25
2023-08-17T07:22:15.766Z,9.00
2023-08-17T07:25:19.744Z,8.68
2023-08-17T07:28:21.555Z,9.55
2023-08-17T07:31:25.128Z,9.27
2023-08-17T07:34:34.124Z,8.80
2023-08-17T07:37:38.296Z,9.30
2023-08-17T07:40:41.482Z,8.25
2023-08-17T07:43:43.178Z,9.15
2023-08-17T07:46:50.837Z,8.90
2023-08-17T07:50:01.195Z,8.57
2023-08-17T07:53:05.952Z,8.23
2023-08-17T07:56:09.832Z,8.25
2023-08-17T07:59:11.582Z,7.47
2023-08-17T08:02:18.702Z,7.63
2023-08-17T08:05:27.628Z,7.30
2023-08-17T08:11:31.091Z,8.05
2023-08-17T08:14:37.192Z,7.85
2023-08-17T08:17:44.697Z,7.03
2023-08-17T08:20:49.068Z,7.00
2023-08-17T08:24:04.986Z,7.60
2023-08-17T08:27:09.270Z,7.28
2023-08-17T08:30:11.388Z,7.50
2023-08-17T08:33:13.133Z,7.53
2023-08-17T08:36:18.112Z,7.25
2023-08-17T08:39:21.217Z,7.65
2023-08-17T08:42:24.140Z,7.38
2023-08-17T08:45:32.642Z,6.40
2023-08-17T08:48:40.593Z,7.07
2023-08-17T08:51:47.166Z,7.00
2023-08-17T08:54:57.790Z,7.20
2023-08-17T08:58:00.001Z,7.82
2023-08-17T09:01:09.235Z,7.80
2023-08-17T09:04:15.749Z,6.65
2023-08-17T09:07:23.494Z,7.43
2023-08-17T09:10:28.729Z,6.78
2023-08-17T09:13:31.186Z,7.15
2023-08-17T09:16:36.105Z,7.18
2023-08-17T09:19:42.855Z,6.43
2023-08-17T09:22:48.087Z,7.40
2023-08-17T09:25:52.050Z,7.70
2023-08-17T09:28:55.722Z,8.05
2023-08-17T09:31:57.796Z,7.32
2023-08-17T09:35:05.188Z,7.28
2023-08-17T09:38:13.289Z,7.68
2023-08-17T09:41:16.916Z,7.38
2023-08-17T09:44:24.266Z,7.75
2023-08-17T09:47:26.129Z,8.35
2023-08-17T09:50:29.326Z,8.27
2023-08-17T09:53:36.046Z,8.70
2023-08-17T09:56:37.913Z,8.02
2023-08-17T09:59:43.796Z,8.35
2023-08-17T10:02:47.601Z,7.63
2023-08-17T10:05:56.037Z,7.28
2023-08-17T10:09:00.309Z,7.18
2023-08-17T10:12:09.906Z,7.78
2023-08-17T10:15:19.437Z,6.60
2023-08-17T10:18:30.297Z,7.53
2023-08-17T10:21:45.561Z,7.40
2023-08-17T10:24:53.886Z,7.00
2023-08-17T10:28:00.038Z,7.20
2023-08-17T10:31:02.167Z,7.03
2023-08-17T10:34:06.279Z,7.00
2023-08-17T10:37:10.274Z,6.28
2023-08-17T10:40:16.816Z,6.10
2023-08-17T10:43:23.526Z,5.55
2023-08-17T10:46:35.518Z,5.47
2023-08-17T10:49:39.994Z,5.90
2023-08-17T10:55:58.316Z,5.78
2023-08-17T10:59:01.166Z,5.30
2023-08-17T11:02:03.004Z,5.22
2023-08-17T11:05:05.639Z,5.22
2023-08-17T11:08:20.806Z,5.47
2023-08-17T11:11:31.896Z,5.53
2023-08-17T11:15:01.474Z,5.88
2023-08-17T11:18:09.419Z,5.85
2023-08-17T11:21:12.159Z,6.05
2023-08-17T11:24:13.980Z,6.10
2023-08-17T11:27:17.181Z,5.65
2023-08-17T11:30:19.155Z,6.00
2023-08-17T11:33:21.369Z,5.80
2023-08-17T11:36:23.878Z,5.95
2023-08-17T11:39:25.612Z,6.45
2023-08-17T11:42:29.045Z,5.72
2023-08-17T11:45:31.088Z,5.82
2023-08-17T11:51:43.032Z,5.88
2023-08-17T11:54:45.252Z,5.57
2023-08-17T11:57:48.377Z,5.40
2023-08-17T12:00:50.430Z,5.22
2023-08-17T12:03:52.326Z,5.70
2023-08-17T12:06:55.147Z,5.25
2023-08-17T12:09:57.479Z,5.30
2023-08-17T12:13:00.766Z,5.82
2023-08-17T12:16:03.168Z,5.60
2023-08-17T12:19:05.798Z,5.30
2023-08-17T12:22:07.634Z,5.47
2023-08-17T12:25:10.457Z,5.90
2023-08-17T12:28:15.051Z,5.75
2023-08-17T12:31:22.509Z,5.50
2023-08-17T12:34:24.273Z,5.38
2023-08-17T12:37:25.978Z,5.93
2023-08-17T12:40:27.736Z,5.50
2023-08-17T12:43:30.849Z,5.85
2023-08-17T12:46:32.849Z,5.47
2023-08-17T12:49:39.558Z,5.10
2023-08-17T12:52:47.209Z,5.00
2023-08-17T12:55:49.385Z,4.38
2023-08-17T12:58:52.495Z,5.05
2023-08-17T13:01:54.198Z,5.13
2023-08-17T13:04:55.945Z,5.32
2023-08-17T13:07:57.792Z,5.57
2023-08-17T13:10:59.579Z,5.65
2023-08-17T13:14:02.644Z,5.82
2023-08-17T13:17:05.077Z,6.05
2023-08-17T13:20:08.045Z,5.72
2023-08-17T13:23:09.779Z,5.80
2023-08-17T13:26:11.710Z,6.13
2023-08-17T13:29:14.826Z,4.55
2023-08-17T13:32:16.617Z,5.13
2023-08-17T13:35:18.481Z,5.47
2023-08-17T13:38:20.193Z,5.22
2023-08-17T13:41:21.900Z,5.68
2023-08-17T13:44:25.156Z,5.55
2023-08-17T13:47:26.933Z,5.53
2023-08-17T13:50:28.673Z,5.22
2023-08-17T13:53:30.396Z,4.82
2023-08-17T13:56:32.132Z,5.10
2023-08-17T13:59:35.217Z,5.38
2023-08-17T14:02:37.492Z,5.30
2023-08-17T14:05:39.775Z,5.65
2023-08-17T14:08:41.561Z,5.30
2023-08-17T14:11:43.299Z,5.07
2023-08-17T14:14:46.395Z,5.32
2023-08-17T14:17:48.081Z,5.82
2023-08-17T14:20:49.834Z,4.75
2023-08-17T14:23:51.531Z,5.45
2023-08-17T14:26:53.224Z,5.13
2023-08-17T14:29:56.373Z,4.82
2023-08-17T14:33:01.583Z,5.18
2023-08-17T14:36:03.919Z,5.03
2023-08-17T14:39:05.870Z,4.85
2023-08-17T14:42:07.662Z,4.72
2023-08-17T14:45:12.543Z,4.75
2023-08-17T14:48:14.267Z,4.80
2023-08-17T14:51:15.985Z,4.90
2023-08-17T14:54:17.749Z,4.65
2023-08-17T14:57:19.493Z,4.63
2023-08-17T15:00:23.705Z,4.72
2023-08-17T15:03:25.671Z,4.80
2023-08-17T15:06:34.037Z,4.50
2023-08-17T15:09:37.086Z,5.15
2023-08-17T15:12:38.851Z,4.70
2023-08-17T15:15:42.012Z,4.60
2023-08-17T15:18:43.811Z,5.03
2023-08-17T15:21:45.874Z,4.50
2023-08-17T15:24:47.657Z,4.32
2023-08-17T15:27:49.401Z,3.88
2023-08-17T15:31:03.073Z,5.05
2023-08-17T15:34:05.228Z,4.93
2023-08-17T15:37:07.176Z,5.03
2023-08-17T15:40:09.482Z,4.35
2023-08-17T15:43:11.263Z,4.00
2023-08-17T15:46:14.469Z,4.45
2023-08-17T15:49:16.235Z,4.60
2023-08-17T15:52:18.308Z,4.40
2023-08-17T15:55:20.076Z,4.53
2023-08-17T15:58:21.820Z,4.30
2023-08-17T16:01:26.066Z,4.22
2023-08-17T16:04:28.115Z,4.25
2023-08-17T16:07:30.149Z,4.35
2023-08-17T16:10:35.152Z,4.07
2023-08-17T16:13:38.790Z,4.55
2023-08-17T16:16:42.256Z,4.55
2023-08-17T16:19:44.475Z,4.30
2023-08-17T16:22:46.271Z,4.38
2023-08-17T16:25:48.319Z,4.22
2023-08-17T16:28:51.362Z,4.20
2023-08-17T16:32:08.967Z,4.22
2023-08-17T16:35:12.053Z,4.03
2023-08-17T16:38:14.219Z,4.18
2023-08-17T16:41:16.254Z,4.10
2023-08-17T16:44:19.044Z,4.38
2023-08-17T16:47:23.734Z,4.05
2023-08-17T16:50:26.684Z,4.03
2023-08-17T16:53:35.630Z,3.95
2023-08-17T16:56:38.022Z,3.78
2023-08-17T16:59:41.231Z,3.63
2023-08-17T17:02:45.869Z,3.95
2023-08-17T17:05:49.269Z,4.07
2023-08-17T17:08:52.637Z,4.30
2023-08-17T17:11:55.928Z,4.47
2023-08-17T17:14:59.667Z,3.95
2023-08-17T17:18:04.475Z,4.38
2023-08-17T17:21:08.780Z,4.20
2023-08-17T17:24:12.101Z,4.30
2023-08-17T17:27:15.669Z,4.45
2023-08-17T17:30:18.899Z,4.55
2023-08-17T17:33:23.878Z,4.30
2023-08-17T17:36:27.312Z,4.30
2023-08-17T17:39:30.814Z,4.88
2023-08-17T17:42:34.251Z,4.70
2023-08-17T17:45:37.662Z,4.32
2023-08-17T17:48:43.024Z,4.95
2023-08-17T17:51:46.530Z,4.90
2023-08-17T17:54:50.091Z,4.43
2023-08-17T17:57:53.679Z,4.82
2023-08-17T18:00:57.227Z,4.43
2023-08-17T18:04:02.467Z,4.70
2023-08-17T18:07:06.087Z,4.70
2023-08-17T18:10:10.478Z,4.88
2023-08-17T18:13:13.955Z,4.40
2023-08-17T18:16:17.789Z,4.90
2023-08-17T18:19:23.490Z,4.78
2023-08-17T18:22:27.571Z,5.13
2023-08-17T18:25:31.301Z,4.78
2023-08-17T18:28:34.923Z,4.72
2023-08-17T18:31:38.672Z,5.05
2023-08-17T18:34:44.888Z,5.13
2023-08-17T18:37:48.491Z,5.30
2023-08-17T18:40:54.102Z,5.00
2023-08-17T18:43:58.189Z,5.03
2023-08-17T18:47:04.213Z,5.13
2023-08-17T18:50:11.353Z,4.60
2023-08-17T18:53:15.064Z,4.90
2023-08-17T18:56:18.798Z,4.75
2023-08-17T18:59:22.512Z,5.13
2023-08-17T19:02:26.301Z,4.50
2023-08-17T19:05:32.777Z,5.15
2023-08-17T19:08:36.406Z,5.15
2023-08-17T19:11:40.082Z,6.50
2023-08-17T19:14:44.512Z,6.65
2023-08-17T19:17:48.297Z,6.18
2023-08-17T19:20:53.767Z,6.25
2023-08-17T19:23:57.535Z,5.95
2023-08-17T19:27:01.434Z,6.18
2023-08-17T19:30:06.633Z,6.03
2023-08-17T19:33:11.374Z,5.30
2023-08-17T19:36:18.061Z,5.53
2023-08-17T19:39:21.711Z,6.18
2023-08-17T19:42:25.358Z,5.70
2023-08-17T19:45:29.000Z,5.88
2023-08-17T19:48:33.589Z,5.80
2023-08-17T19:51:39.111Z,5.60
2023-08-17T19:54:42.563Z,5.57
2023-08-17T19:57:45.933Z,5.40
2023-08-17T20:00:49.185Z,5.45
2023-08-17T20:03:54.079Z,5.72
2023-08-17T20:06:59.038Z,5.55
2023-08-17T20:10:02.826Z,5.40
2023-08-17T20:13:06.386Z,4.43
2023-08-17T20:16:09.807Z,4.60
2023-08-17T20:19:13.353Z,4.47
2023-08-17T20:22:18.114Z,4.35
2023-08-17T20:25:21.329Z,4.95
2023-08-17T20:28:24.939Z,4.63
2023-08-17T20:31:28.512Z,4.90
2023-08-17T20:34:31.928Z,4.50
2023-08-17T20:37:37.089Z,4.90
2023-08-17T20:40:40.574Z,4.25
2023-08-17T20:43:43.927Z,4.15
2023-08-17T20:46:47.098Z,4.03
2023-08-17T20:49:50.523Z,4.53
2023-08-17T20:52:55.430Z,4.40
2023-08-17T20:55:58.552Z,4.43
2023-08-17T20:59:01.395Z,4.18
2023-08-17T21:02:03.180Z,5.20
2023-08-17T21:05:05.400Z,4.25
2023-08-17T21:08:08.551Z,4.68
2023-08-17T21:11:10.874Z,4.60
2023-08-17T21:14:12.656Z,4.85
2023-08-17T21:17:14.450Z,4.32
2023-08-17T21:20:16.610Z,5.00
2023-08-17T21:23:19.652Z,4.80
2023-08-17T21:26:21.454Z,4.90
2023-08-17T21:29:23.154Z,5.30
2023-08-17T21:32:24.991Z,4.93
2023-08-17T21:35:27.259Z,5.97
2023-08-17T21:38:30.492Z,5.68
2023-08-17T21:41:32.282Z,5.40
2023-08-17T21:44:33.998Z,4.68
2023-08-17T21:47:35.781Z,5.53
2023-08-17T21:50:37.917Z,5.32
2023-08-17T21:53:41.107Z,5.32
2023-08-17T21:56:42.962Z,4.53
2023-08-17T21:59:44.893Z,4.65
2023-08-17T22:02:46.858Z,4.75
2023-08-17T22:05:48.669Z,4.55
2023-08-17T22:08:51.776Z,4.53
2023-08-17T22:11:53.483Z,4.70
2023-08-17T22:14:55.221Z,5.85
2023-08-17T22:17:57.088Z,5.15
2023-08-17T22:20:58.830Z,6.35
2023-08-17T22:24:01.931Z,6.03
2023-08-17T22:27:03.700Z,5.10
2023-08-17T22:30:06.631Z,4.78
2023-08-17T22:33:08.360Z,4.32
2023-08-17T22:36:10.109Z,4.47
2023-08-17T22:39:13.200Z,5.22
2023-08-17T22:42:14.946Z,4.63
2023-08-17T22:45:16.800Z,4.50
2023-08-17T22:48:18.580Z,4.00
2023-08-17T22:51:20.341Z,4.18
2023-08-17T22:54:23.530Z,3.60
2023-08-17T22:57:25.336Z,4.28
2023-08-17T23:00:27.270Z,3.50
2023-08-17T23:03:29.285Z,3.33
2023-08-17T23:06:31.046Z,3.15
2023-08-17T23:09:34.212Z,3.45
2023-08-17T23:12:35.924Z,3.17
2023-08-17T23:15:37.705Z,3.40
2023-08-17T23:18:39.428Z,3.45
2023-08-17T23:21:41.158Z,2.97
2023-08-17T23:24:44.274Z,3.05
2023-08-17T23:27:46.021Z,3.03
2023-08-17T23:30:47.793Z,3.40
2023-08-17T23:33:49.484Z,3.95
2023-08-17T23:36:51.206Z,3.90
2023-08-17T23:39:54.305Z,4.10
2023-08-17T23:42:56.042Z,3.47
2023-08-17T23:45:57.799Z,3.60
2023-08-17T23:48:59.536Z,3.58
2023-08-17T23:52:01.332Z,3.22
2023-08-17T23:55:05.045Z,3.50
2023-08-17T23:58:06.792Z,3.03
